createdAt,value
2022-10-21T00:00:51.476Z,8.00
2022-10-21T00:03:38.864Z,7.90
2022-10-21T00:06:25.939Z,7.82
2022-10-21T00:09:13.249Z,7.57
2022-10-21T00:12:00.667Z,7.07
2022-10-21T00:14:51.610Z,8.15
2022-10-21T00:17:42.089Z,8.15
2022-10-21T00:20:29.396Z,7.30
2022-10-21T00:23:25.311Z,7.78
2022-10-21T00:26:13.140Z,8.13
2022-10-21T00:29:00.461Z,7.00
2022-10-21T00:31:54.369Z,7.82
2022-10-21T00:34:43.236Z,7.43
2022-10-21T00:37:31.525Z,7.22
2022-10-21T00:40:18.906Z,8.00
2022-10-21T00:43:05.783Z,6.93
2022-10-21T00:45:54.414Z,8.18
2022-10-21T00:48:44.347Z,7.53
2022-10-21T00:51:32.779Z,7.60
2022-10-21T00:54:20.987Z,7.07
2022-10-21T00:57:08.555Z,7.72
2022-10-21T00:59:57.267Z,7.78
2022-10-21T01:02:44.274Z,7.43
2022-10-21T01:05:32.893Z,7.43
2022-10-21T01:08:20.563Z,7.55
2022-10-21T01:11:08.734Z,7.63
2022-10-21T01:14:09.903Z,6.25
2022-10-21T01:17:00.612Z,6.40
2022-10-21T01:20:02.641Z,7.15
2022-10-21T01:23:04.922Z,6.57
2022-10-21T01:26:01.875Z,5.95
2022-10-21T01:28:54.831Z,6.50
2022-10-21T01:31:45.457Z,6.55
2022-10-21T01:34:37.422Z,7.18
2022-10-21T01:37:27.182Z,7.07
2022-10-21T01:40:16.634Z,6.95
2022-10-21T01:43:09.408Z,7.25
2022-10-21T01:45:58.557Z,6.78
2022-10-21T01:48:49.881Z,7.75
2022-10-21T01:51:39.498Z,7.93
2022-10-21T01:54:29.009Z,7.78
2022-10-21T01:57:17.408Z,8.27
2022-10-21T02:00:05.086Z,8.45
2022-10-21T02:02:52.251Z,9.85
2022-10-21T02:05:41.717Z,9.30
2022-10-21T02:08:28.954Z,8.23
2022-10-21T02:11:18.188Z,8.77
2022-10-21T02:14:07.223Z,9.02
2022-10-21T02:16:54.738Z,8.18
2022-10-21T02:19:46.690Z,9.05
2022-10-21T02:22:35.683Z,7.85
2022-10-21T02:25:25.127Z,8.15
2022-10-21T02:28:12.244Z,7.30
2022-10-21T02:31:06.016Z,7.13
2022-10-21T02:34:00.048Z,7.32
2022-10-21T02:37:05.450Z,7.28
2022-10-21T02:39:57.991Z,6.30
2022-10-21T02:42:46.798Z,6.72
2022-10-21T02:45:35.083Z,6.63
2022-10-21T02:48:22.087Z,7.50
2022-10-21T02:51:09.755Z,7.05
2022-10-21T02:53:56.877Z,7.43
2022-10-21T02:56:45.403Z,6.70
2022-10-21T02:59:32.318Z,6.40
2022-10-21T03:02:19.825Z,6.97
2022-10-21T03:05:07.421Z,6.20
2022-10-21T03:07:54.702Z,6.75
2022-10-21T03:10:41.934Z,5.88
2022-10-21T03:13:30.549Z,6.28
2022-10-21T03:19:06.046Z,5.88
2022-10-21T03:21:53.299Z,6.60
2022-10-21T03:24:40.410Z,6.50
2022-10-21T03:27:28.512Z,6.70
2022-10-21T03:30:17.209Z,7.25
2022-10-21T03:33:04.638Z,7.85
2022-10-21T03:35:54.510Z,7.45
2022-10-21T03:38:42.063Z,8.13
2022-10-21T03:41:30.180Z,8.05
2022-10-21T03:44:20.891Z,8.32
2022-10-21T03:47:09.282Z,9.32
2022-10-21T03:49:56.420Z,9.77
2022-10-21T03:52:43.546Z,8.50
2022-10-21T03:55:30.653Z,9.65
2022-10-21T03:58:18.090Z,9.23
2022-10-21T04:01:05.414Z,8.40
2022-10-21T04:03:53.967Z,8.00
2022-10-21T04:06:40.891Z,8.27
2022-10-21T04:09:30.455Z,9.23
2022-10-21T04:12:17.679Z,8.93
2022-10-21T04:15:05.435Z,9.48
2022-10-21T04:17:52.284Z,8.35
2022-10-21T04:20:40.909Z,8.45
2022-10-21T04:23:27.912Z,7.97
2022-10-21T04:26:14.851Z,8.97
2022-10-21T04:29:01.822Z,8.90
2022-10-21T04:31:49.040Z,8.43
2022-10-21T04:34:36.180Z,9.07
2022-10-21T04:37:24.685Z,8.95
2022-10-21T04:40:12.085Z,7.97
2022-10-21T04:42:59.275Z,9.25
2022-10-21T04:45:46.172Z,8.85
2022-10-21T04:48:34.859Z,8.87
2022-10-21T04:51:22.177Z,9.02
2022-10-21T04:54:11.372Z,8.57
2022-10-21T04:56:58.473Z,8.40
2022-10-21T04:59:45.531Z,9.35
2022-10-21T05:02:33.042Z,8.75
2022-10-21T05:05:20.396Z,8.17
2022-10-21T05:08:11.469Z,7.90
2022-10-21T05:11:01.017Z,7.82
2022-10-21T05:13:48.328Z,8.23
2022-10-21T05:16:35.323Z,7.78
2022-10-21T05:19:22.486Z,8.80
2022-10-21T05:22:09.645Z,8.55
2022-10-21T05:24:56.981Z,7.70
2022-10-21T05:27:45.570Z,8.90
2022-10-21T05:30:32.801Z,8.13
2022-10-21T05:33:19.794Z,8.50
2022-10-21T05:36:08.596Z,9.73
2022-10-21T05:38:55.633Z,8.75
2022-10-21T05:41:45.501Z,9.85
2022-10-21T05:44:36.757Z,8.77
2022-10-21T05:47:24.539Z,9.52
2022-10-21T05:50:12.228Z,9.35
2022-10-21T05:52:59.659Z,9.05
2022-10-21T05:55:46.855Z,8.98
2022-10-21T05:58:34.660Z,9.48
2022-10-21T06:01:23.611Z,8.50
2022-10-21T06:04:10.968Z,8.32
2022-10-21T06:09:47.896Z,8.15
2022-10-21T06:12:35.218Z,8.63
2022-10-21T06:15:22.524Z,7.90
2022-10-21T06:18:10.968Z,7.70
2022-10-21T06:20:58.152Z,7.70
2022-10-21T06:23:45.328Z,8.52
2022-10-21T06:26:34.660Z,7.47
2022-10-21T06:29:26.260Z,7.40
2022-10-21T06:32:13.619Z,6.75
2022-10-21T06:35:03.381Z,7.47
2022-10-21T06:37:50.742Z,7.28
2022-10-21T06:40:37.777Z,8.27
2022-10-21T06:43:24.840Z,6.63
2022-10-21T06:46:13.444Z,6.43
2022-10-21T06:49:01.031Z,6.97
2022-10-21T06:51:49.687Z,6.45
2022-10-21T06:54:37.115Z,6.22
2022-10-21T06:57:24.362Z,6.97
2022-10-21T07:00:12.037Z,5.82
2022-10-21T07:02:59.120Z,5.25
2022-10-21T07:05:49.101Z,5.40
2022-10-21T07:08:47.194Z,5.53
2022-10-21T07:11:44.551Z,6.22
2022-10-21T07:14:31.496Z,6.85
2022-10-21T07:17:18.693Z,6.10
2022-10-21T07:20:05.986Z,6.13
2022-10-21T07:25:41.868Z,5.75
2022-10-21T07:28:30.356Z,6.35
2022-10-21T07:31:18.184Z,6.75
2022-10-21T07:34:06.427Z,6.10
2022-10-21T07:36:53.829Z,5.85
2022-10-21T07:39:41.009Z,5.82
2022-10-21T07:42:30.801Z,6.20
2022-10-21T07:45:18.285Z,5.93
2022-10-21T07:48:05.409Z,5.53
2022-10-21T07:50:52.893Z,5.70
2022-10-21T07:53:40.547Z,5.35
2022-10-21T07:56:28.674Z,5.82
2022-10-21T07:59:17.602Z,5.40
2022-10-21T08:02:04.686Z,5.43
2022-10-21T08:04:52.280Z,5.05
2022-10-21T08:10:27.516Z,5.47
2022-10-21T08:13:15.578Z,6.15
2022-10-21T08:16:06.812Z,5.70
2022-10-21T08:18:54.329Z,5.22
2022-10-21T08:21:42.025Z,5.45
2022-10-21T08:24:29.205Z,5.47
2022-10-21T08:27:16.467Z,5.75
2022-10-21T08:30:03.686Z,5.45
2022-10-21T08:32:52.143Z,6.03
2022-10-21T08:35:39.366Z,5.63
2022-10-21T08:41:20.102Z,5.28
2022-10-21T08:44:08.131Z,5.30
2022-10-21T08:46:57.991Z,5.30
2022-10-21T08:49:51.800Z,5.47
2022-10-21T08:52:41.416Z,4.55
2022-10-21T08:55:33.386Z,4.65
2022-10-21T08:58:21.912Z,4.32
2022-10-21T09:01:19.394Z,4.00
2022-10-21T09:04:11.398Z,3.70
2022-10-21T09:07:05.650Z,4.68
2022-10-21T09:09:54.690Z,4.55
2022-10-21T09:12:46.070Z,3.90
2022-10-21T09:15:36.138Z,3.80
2022-10-21T09:18:36.658Z,4.32
2022-10-21T09:21:26.939Z,3.80
2022-10-21T09:24:20.959Z,3.95
2022-10-21T09:27:09.434Z,3.85
2022-10-21T09:29:58.690Z,3.25
2022-10-21T09:32:49.813Z,3.65
2022-10-21T09:35:39.433Z,3.33
2022-10-21T09:38:27.095Z,3.05
2022-10-21T09:41:18.456Z,3.78
2022-10-21T09:44:05.942Z,3.28
2022-10-21T09:46:55.430Z,3.97
2022-10-21T09:50:06.372Z,3.72
2022-10-21T09:52:58.642Z,3.90
2022-10-21T09:55:50.388Z,4.50
2022-10-21T09:58:50.217Z,4.40
2022-10-21T10:01:37.980Z,4.28
2022-10-21T10:04:30.389Z,4.07
2022-10-21T10:07:22.339Z,4.30
2022-10-21T10:10:29.535Z,4.65
2022-10-21T10:13:19.377Z,4.00
2022-10-21T10:16:19.338Z,3.85
2022-10-21T10:19:13.717Z,4.10
2022-10-21T10:22:11.318Z,4.45
2022-10-21T10:25:11.067Z,4.05
2022-10-21T10:27:59.722Z,4.15
2022-10-21T10:30:49.170Z,4.00
2022-10-21T10:33:37.888Z,4.32
2022-10-21T10:36:28.272Z,4.35
2022-10-21T10:39:18.812Z,4.57
2022-10-21T10:42:06.503Z,4.40
2022-10-21T10:44:54.960Z,3.90
2022-10-21T10:47:43.877Z,4.00
2022-10-21T10:50:49.147Z,3.78
2022-10-21T10:53:36.786Z,3.33
2022-10-21T10:56:25.320Z,3.05
2022-10-21T10:59:14.754Z,3.88
2022-10-21T11:02:04.431Z,3.30
2022-10-21T11:04:56.403Z,3.58
2022-10-21T11:07:48.126Z,3.80
2022-10-21T11:10:36.790Z,3.72
2022-10-21T11:13:24.939Z,4.05
2022-10-21T11:16:21.141Z,4.45
2022-10-21T11:19:13.524Z,3.83
2022-10-21T11:22:06.545Z,3.17
2022-10-21T11:24:59.777Z,3.25
2022-10-21T11:27:55.111Z,3.28
2022-10-21T11:30:49.801Z,4.10
2022-10-21T11:33:44.774Z,3.30
2022-10-21T11:36:37.432Z,3.58
2022-10-21T11:39:42.298Z,3.22
2022-10-21T11:42:33.892Z,3.65
2022-10-21T11:46:45.929Z,2.97
2022-10-21T11:49:40.770Z,3.30
2022-10-21T11:52:33.359Z,4.03
2022-10-21T11:55:32.136Z,3.05
2022-10-21T11:58:30.216Z,3.80
2022-10-21T12:01:28.074Z,3.38
2022-10-21T12:04:29.944Z,3.72
2022-10-21T12:07:23.835Z,2.90
2022-10-21T12:10:14.319Z,3.72
2022-10-21T12:13:03.454Z,3.60
2022-10-21T12:15:51.266Z,4.05
2022-10-21T12:18:40.736Z,3.38
2022-10-21T12:21:31.417Z,3.40
2022-10-21T12:24:23.533Z,2.90
2022-10-21T12:27:13.278Z,2.90
2022-10-21T12:30:03.590Z,3.08
2022-10-21T12:32:55.078Z,2.63
2022-10-21T12:35:53.252Z,2.78
2022-10-21T12:38:49.804Z,3.05
2022-10-21T12:41:39.613Z,3.13
2022-10-21T12:44:27.352Z,2.53
2022-10-21T12:50:09.270Z,3.80
2022-10-21T12:53:07.444Z,2.58
2022-10-21T12:55:59.018Z,2.67
2022-10-21T12:58:46.837Z,2.83
2022-10-21T13:01:42.351Z,2.88
2022-10-21T13:04:49.257Z,2.38
2022-10-21T13:07:39.796Z,2.67
2022-10-21T13:10:29.996Z,2.55
2022-10-21T13:13:31.992Z,3.03
2022-10-21T13:16:37.984Z,2.42
2022-10-21T13:19:35.393Z,2.22
2022-10-21T13:22:23.776Z,2.30
2022-10-21T13:25:12.019Z,2.58
2022-10-21T13:28:05.693Z,2.55
2022-10-21T13:31:00.726Z,2.58
2022-10-21T13:33:53.103Z,2.28
2022-10-21T13:36:43.559Z,2.10
2022-10-21T13:39:32.235Z,2.33
2022-10-21T13:42:24.113Z,1.92
2022-10-21T13:45:20.253Z,2.17
2022-10-21T13:48:13.059Z,1.90
2022-10-21T13:51:12.025Z,1.80
2022-10-21T13:53:59.782Z,1.60
2022-10-21T13:56:47.424Z,2.08
2022-10-21T13:59:35.005Z,1.48
2022-10-21T14:05:23.814Z,1.58
2022-10-21T14:08:21.224Z,1.50
2022-10-21T14:11:12.144Z,1.88
2022-10-21T14:14:04.121Z,1.90
2022-10-21T14:16:54.688Z,1.52
2022-10-21T14:19:42.236Z,1.48
2022-10-21T14:22:31.576Z,1.73
2022-10-21T14:25:24.319Z,1.70
